createdAt,value
2023-01-04T00:00:49.411Z,5.78
2023-01-04T00:05:50.906Z,5.81
2023-01-04T00:10:52.425Z,5.88
2023-01-04T00:15:53.977Z,5.90
2023-01-04T00:20:55.513Z,5.81
2023-01-04T00:25:56.953Z,5.83
2023-01-04T00:31:02.689Z,5.86
2023-01-04T00:36:13.829Z,5.82
2023-01-04T00:41:34.741Z,5.76
2023-01-04T00:46:37.699Z,5.68
2023-01-04T00:51:41.210Z,5.65
2023-01-04T00:56:43.568Z,5.69
2023-01-04T01:01:45.447Z,5.70
2023-01-04T01:06:47.841Z,5.65
2023-01-04T01:11:50.020Z,5.65
2023-01-04T01:16:57.703Z,5.57
2023-01-04T01:22:00.136Z,5.61
2023-01-04T01:27:01.600Z,5.63
2023-01-04T01:32:03.361Z,5.75
2023-01-04T01:37:04.988Z,5.76
2023-01-04T01:42:06.504Z,5.81
2023-01-04T01:47:22.135Z,5.82
2023-01-04T01:52:31.594Z,5.87
2023-01-04T01:57:37.851Z,5.86
2023-01-04T02:02:47.393Z,5.89
2023-01-04T02:07:50.596Z,6.01
2023-01-04T02:12:52.857Z,6.10
2023-01-04T02:18:10.114Z,6.01
2023-01-04T02:23:34.374Z,6.03
2023-01-04T02:28:55.320Z,6.06
2023-01-04T02:34:08.528Z,6.00
2023-01-04T02:39:22.080Z,6.04
2023-01-04T02:44:55.872Z,6.00
2023-01-04T02:50:15.963Z,5.96
2023-01-04T02:55:17.539Z,5.91
2023-01-04T03:00:26.787Z,5.85
2023-01-04T03:06:14.763Z,5.84
2023-01-04T03:11:36.711Z,5.81
2023-01-04T03:16:40.775Z,5.68
2023-01-04T03:21:45.109Z,5.71
2023-01-04T03:27:08.296Z,5.69
2023-01-04T03:32:37.049Z,5.67
2023-01-04T03:37:47.716Z,5.66
2023-01-04T03:43:19.520Z,5.58
2023-01-04T03:48:34.482Z,5.64
2023-01-04T03:53:44.184Z,5.51
2023-01-04T03:58:46.406Z,5.54
2023-01-04T04:04:06.392Z,5.49
2023-01-04T04:09:07.988Z,5.53
2023-01-04T04:14:09.452Z,5.57
2023-01-04T04:19:11.020Z,5.54
2023-01-04T04:24:22.149Z,5.55
2023-01-04T04:29:24.584Z,5.53
2023-01-04T04:34:26.111Z,5.58
2023-01-04T04:39:27.634Z,5.53
2023-01-04T04:44:29.109Z,5.60
2023-01-04T04:49:30.579Z,5.61
2023-01-04T04:54:32.017Z,5.63
2023-01-04T04:59:33.665Z,5.56
2023-01-04T05:04:35.077Z,5.69
2023-01-04T05:09:36.561Z,5.71
2023-01-04T05:14:38.114Z,5.73
2023-01-04T05:19:39.614Z,5.81
2023-01-04T05:24:41.121Z,5.85
2023-01-04T05:30:01.022Z,5.81
2023-01-04T05:35:02.620Z,5.84
2023-01-04T05:40:04.459Z,5.93
2023-01-04T05:45:06.883Z,6.01
2023-01-04T05:50:10.047Z,6.04
2023-01-04T05:55:11.910Z,6.08
2023-01-04T06:00:14.636Z,6.10
2023-01-04T06:05:16.471Z,6.14
2023-01-04T06:10:18.783Z,6.23
2023-01-04T06:15:20.263Z,6.30
2023-01-04T06:20:21.839Z,6.39
2023-01-04T06:25:23.314Z,6.35
2023-01-04T06:30:24.833Z,6.39
2023-01-04T06:35:26.410Z,6.46
2023-01-04T06:40:28.630Z,6.70
2023-01-04T06:45:30.079Z,6.63
2023-01-04T06:50:31.590Z,6.51
2023-01-04T06:55:33.107Z,6.62
2023-01-04T07:00:34.580Z,6.69
2023-01-04T07:05:36.129Z,6.70
2023-01-04T07:10:37.695Z,6.72
2023-01-04T07:15:40.841Z,6.79
2023-01-04T07:20:43.616Z,6.79
2023-01-04T07:25:45.111Z,6.90
2023-01-04T07:30:46.652Z,6.97
2023-01-04T07:35:48.130Z,7.13
2023-01-04T07:40:55.918Z,7.22
2023-01-04T07:45:58.252Z,7.27
2023-01-04T07:50:59.737Z,7.42
2023-01-04T07:56:01.352Z,7.56
2023-01-04T08:01:08.115Z,7.68
2023-01-04T08:06:11.994Z,7.80
2023-01-04T08:11:17.118Z,7.97
2023-01-04T08:16:40.565Z,8.04
2023-01-04T08:21:43.040Z,8.18
2023-01-04T08:26:45.750Z,8.33
2023-01-04T08:31:47.287Z,8.45
2023-01-04T08:36:50.735Z,8.61
2023-01-04T08:41:59.335Z,8.65
2023-01-04T08:47:04.460Z,8.78
2023-01-04T08:52:06.120Z,8.85
2023-01-04T08:57:07.602Z,8.93
2023-01-04T09:02:22.443Z,8.99
2023-01-04T09:07:24.013Z,9.04
2023-01-04T09:12:25.515Z,9.11
2023-01-04T09:17:27.049Z,9.15
2023-01-04T09:22:30.799Z,9.16
2023-01-04T09:27:32.785Z,9.24
2023-01-04T09:32:34.276Z,9.23
2023-01-04T09:37:35.719Z,9.25
2023-01-04T09:42:44.057Z,9.27
2023-01-04T09:47:55.787Z,9.24
2023-01-04T09:53:12.434Z,9.33
2023-01-04T09:58:35.513Z,9.38
2023-01-04T10:03:39.495Z,9.42
2023-01-04T10:08:44.337Z,9.42
2023-01-04T10:14:01.357Z,9.39
2023-01-04T10:21:08.541Z,9.50
2023-01-04T10:24:58.309Z,9.52
2023-01-04T10:30:16.453Z,9.51
2023-01-04T10:35:24.112Z,9.57
2023-01-04T10:40:27.967Z,9.60
2023-01-04T10:45:43.789Z,9.58
2023-01-04T10:50:56.440Z,9.58
2023-01-04T10:56:26.245Z,9.58
2023-01-04T11:01:36.116Z,9.62
2023-01-04T11:06:48.429Z,9.53
2023-01-04T11:11:51.231Z,9.63
2023-01-04T11:16:59.612Z,9.62
2023-01-04T11:22:28.042Z,9.68
2023-01-04T11:27:35.888Z,9.84
2023-01-04T11:33:03.081Z,9.85
2023-01-04T11:38:27.862Z,9.84
2023-01-04T11:43:39.029Z,9.88
2023-01-04T11:48:46.171Z,9.91
2023-01-04T11:53:57.437Z,9.91
2023-01-04T11:59:04.127Z,9.84
2023-01-04T12:04:23.235Z,9.91
2023-01-04T12:09:24.893Z,9.94
2023-01-04T12:14:29.270Z,9.93
2023-01-04T12:19:31.382Z,9.86
2023-01-04T12:24:34.479Z,9.80
2023-01-04T12:29:44.631Z,9.83
2023-01-04T12:34:49.010Z,9.78
2023-01-04T12:39:50.541Z,9.70
2023-01-04T12:44:52.262Z,9.77
2023-01-04T12:49:56.670Z,9.76
2023-01-04T12:55:00.629Z,9.75
2023-01-04T13:00:07.065Z,9.82
2023-01-04T13:10:43.623Z,9.94
2023-01-04T13:16:16.666Z,10.00
2023-01-04T13:21:27.804Z,9.98
2023-01-04T13:26:48.795Z,9.99
2023-01-04T13:31:59.725Z,10.02
2023-01-04T13:37:17.211Z,9.74
2023-01-04T13:42:26.824Z,9.77
2023-01-04T13:47:33.670Z,9.74
2023-01-04T13:52:50.900Z,9.74
2023-01-04T13:58:01.865Z,9.76
2023-01-04T14:03:21.477Z,9.71
2023-01-04T14:09:01.722Z,9.74
2023-01-04T14:14:05.070Z,9.66
2023-01-04T14:19:27.692Z,9.70
2023-01-04T14:29:54.315Z,9.64
2023-01-04T14:34:55.882Z,9.59
2023-01-04T14:39:58.138Z,9.59
2023-01-04T14:44:59.778Z,9.55
2023-01-04T14:50:01.283Z,9.45
2023-01-04T14:55:04.894Z,9.38
2023-01-04T15:00:07.048Z,9.20
2023-01-04T15:05:09.032Z,9.15
2023-01-04T15:10:28.008Z,9.17
2023-01-04T15:15:30.202Z,9.17
2023-01-04T15:20:31.870Z,9.22
2023-01-04T15:25:33.419Z,9.24
2023-01-04T15:30:35.300Z,9.18
2023-01-04T15:35:36.742Z,9.13
2023-01-04T15:40:38.935Z,9.18
2023-01-04T15:45:40.376Z,9.14
2023-01-04T15:50:41.879Z,9.10
2023-01-04T15:55:43.418Z,9.12
2023-01-04T16:00:45.769Z,9.11
2023-01-04T16:05:49.711Z,9.04
2023-01-04T16:10:51.200Z,8.99
2023-01-04T16:15:52.760Z,8.98
2023-01-04T16:20:54.281Z,8.95
2023-01-04T16:26:10.033Z,8.88
2023-01-04T16:31:11.563Z,8.95
2023-01-04T16:36:14.811Z,8.84
2023-01-04T16:41:18.567Z,8.85
2023-01-04T16:46:28.800Z,8.76
2023-01-04T16:51:32.650Z,8.68
2023-01-04T16:56:34.235Z,8.61
2023-01-04T17:01:40.920Z,8.62
2023-01-04T17:06:49.941Z,8.67
2023-01-04T17:17:18.739Z,8.72
2023-01-04T17:22:20.353Z,8.73
2023-01-04T17:27:21.807Z,8.78
2023-01-04T17:32:23.325Z,8.84
2023-01-04T17:37:25.281Z,8.78
2023-01-04T17:42:26.787Z,8.68
2023-01-04T17:47:29.255Z,8.56
2023-01-04T17:52:31.685Z,8.50
2023-01-04T17:57:34.989Z,8.56
2023-01-04T18:02:36.473Z,8.60
2023-01-04T18:07:37.944Z,8.55
2023-01-04T18:12:39.438Z,8.56
2023-01-04T18:17:41.017Z,8.53
2023-01-04T18:22:42.448Z,8.50
2023-01-04T18:27:43.942Z,8.44
2023-01-04T18:32:45.479Z,8.47
2023-01-04T18:37:47.007Z,8.50
2023-01-04T18:42:49.416Z,8.54
2023-01-04T18:47:52.092Z,8.56
2023-01-04T18:52:53.800Z,8.62
2023-01-04T18:57:55.286Z,8.56
2023-01-04T19:02:57.535Z,8.47
2023-01-04T19:07:59.008Z,8.44
2023-01-04T19:13:00.515Z,8.51
2023-01-04T19:18:01.967Z,8.52
2023-01-04T19:23:03.452Z,8.52
2023-01-04T19:28:05.395Z,8.56
2023-01-04T19:33:07.212Z,8.57
2023-01-04T19:38:09.082Z,8.54
2023-01-04T19:43:10.694Z,8.53
2023-01-04T19:48:12.183Z,8.49
2023-01-04T19:53:13.934Z,8.54
2023-01-04T19:58:15.822Z,8.51
2023-01-04T20:03:17.432Z,8.45
2023-01-04T20:08:19.371Z,8.43
2023-01-04T20:13:20.890Z,8.48
2023-01-04T20:18:25.747Z,8.43
2023-01-04T20:23:27.331Z,8.47
2023-01-04T20:28:28.827Z,8.47
2023-01-04T20:33:31.370Z,8.53
2023-01-04T20:38:39.847Z,8.54
2023-01-04T20:43:42.624Z,8.53
2023-01-04T20:48:44.828Z,8.50
2023-01-04T20:53:46.726Z,8.53
2023-01-04T20:58:49.295Z,8.51
2023-01-04T21:03:50.899Z,8.54
2023-01-04T21:08:54.747Z,8.50
2023-01-04T21:13:56.551Z,8.48
2023-01-04T21:18:58.626Z,8.45
2023-01-04T21:24:00.085Z,8.50
2023-01-04T21:29:01.576Z,8.53
2023-01-04T21:34:07.920Z,8.51
2023-01-04T21:39:12.904Z,8.60
2023-01-04T21:44:14.455Z,8.50
2023-01-04T21:49:15.975Z,8.55
2023-01-04T21:54:17.393Z,8.53
2023-01-04T21:59:18.819Z,8.49
2023-01-04T22:04:20.275Z,8.48
2023-01-04T22:09:21.785Z,8.41
2023-01-04T22:14:23.200Z,8.41
2023-01-04T22:19:24.655Z,8.40
2023-01-04T22:24:26.145Z,8.37
2023-01-04T22:29:27.638Z,8.34
2023-01-04T22:34:29.156Z,8.34
2023-01-04T22:39:30.631Z,8.33
2023-01-04T22:44:32.081Z,8.30
2023-01-04T22:49:33.538Z,8.26
2023-01-04T22:54:35.587Z,8.26
2023-01-04T22:59:37.058Z,8.22
2023-01-04T23:04:38.621Z,8.02
2023-01-04T23:09:40.276Z,7.84
2023-01-04T23:14:41.775Z,7.88
2023-01-04T23:19:43.298Z,7.73
2023-01-04T23:24:44.776Z,7.60
2023-01-04T23:29:46.472Z,7.42
2023-01-04T23:34:50.945Z,7.31
2023-01-04T23:39:52.389Z,7.22
2023-01-04T23:44:53.865Z,7.25
2023-01-04T23:49:55.402Z,7.09
2023-01-04T23:54:56.813Z,7.14
2023-01-04T23:59:58.286Z,7.10
